createdAt,value
2022-09-22T00:01:43.437Z,100.00
2022-09-22T00:04:15.193Z,100.00
2022-09-22T00:06:47.665Z,100.00
2022-09-22T00:09:17.736Z,100.00
2022-09-22T00:11:47.652Z,100.00
2022-09-22T00:14:17.875Z,100.00
2022-09-22T00:16:49.645Z,100.00
2022-09-22T00:19:19.582Z,100.00
2022-09-22T00:21:50.929Z,100.00
2022-09-22T00:24:22.778Z,100.00
2022-09-22T00:26:52.424Z,100.00
2022-09-22T00:29:21.199Z,100.00
2022-09-22T00:31:49.627Z,100.00
2022-09-22T00:34:20.194Z,100.00
2022-09-22T00:36:53.606Z,100.00
2022-09-22T00:39:22.319Z,100.00
2022-09-22T00:41:53.910Z,100.00
2022-09-22T00:44:36.094Z,100.00
2022-09-22T00:47:09.684Z,100.00
2022-09-22T00:49:45.809Z,100.00
2022-09-22T00:52:20.786Z,100.00
2022-09-22T00:54:51.553Z,100.00
2022-09-22T00:57:22.589Z,100.00
2022-09-22T00:59:53.872Z,100.00
2022-09-22T01:02:23.961Z,100.00
2022-09-22T01:04:53.903Z,100.00
2022-09-22T01:07:29.593Z,100.00
2022-09-22T01:09:59.092Z,100.00
2022-09-22T01:12:29.513Z,100.00
2022-09-22T01:15:10.932Z,100.00
2022-09-22T01:17:53.270Z,100.00
2022-09-22T01:21:09.266Z,100.00
2022-09-22T01:24:15.610Z,100.00
2022-09-22T01:27:17.233Z,100.00
2022-09-22T01:30:18.534Z,100.00
2022-09-22T01:33:08.749Z,100.00
2022-09-22T01:35:45.469Z,100.00
2022-09-22T01:38:22.372Z,100.00
2022-09-22T01:40:56.230Z,100.00
2022-09-22T01:43:37.847Z,100.00
2022-09-22T01:46:13.537Z,100.00
2022-09-22T01:48:46.481Z,100.00
2022-09-22T01:51:19.907Z,100.00
2022-09-22T01:53:54.423Z,100.00
2022-09-22T01:56:24.920Z,100.00
2022-09-22T01:58:56.717Z,100.00
2022-09-22T02:01:31.076Z,100.00
2022-09-22T02:04:05.663Z,100.00
2022-09-22T02:06:37.730Z,100.00
2022-09-22T02:09:11.118Z,100.00
2022-09-22T02:11:41.052Z,100.00
2022-09-22T02:14:09.994Z,100.00
2022-09-22T02:16:41.058Z,100.00
2022-09-22T02:19:13.881Z,100.00
2022-09-22T02:21:50.368Z,100.00
2022-09-22T02:24:31.695Z,100.00
2022-09-22T02:27:02.098Z,100.00
2022-09-22T02:29:33.758Z,100.00
2022-09-22T02:32:09.759Z,100.00
2022-09-22T02:34:38.445Z,100.00
2022-09-22T02:37:14.987Z,100.00
2022-09-22T02:39:50.102Z,100.00
2022-09-22T02:42:29.727Z,100.00
2022-09-22T02:45:06.906Z,100.00
2022-09-22T02:47:42.795Z,100.00
2022-09-22T02:50:13.681Z,100.00
2022-09-22T02:52:46.419Z,100.00
2022-09-22T02:55:16.300Z,100.00
2022-09-22T02:57:45.820Z,100.00
2022-09-22T03:00:15.044Z,100.00
2022-09-22T03:02:44.871Z,100.00
2022-09-22T03:05:13.258Z,100.00
2022-09-22T03:07:41.463Z,100.00
2022-09-22T03:10:11.211Z,100.00
2022-09-22T03:13:02.385Z,100.00
2022-09-22T03:15:31.578Z,100.00
2022-09-22T03:18:01.707Z,100.00
2022-09-22T03:20:30.040Z,100.00
2022-09-22T03:22:58.332Z,100.00
2022-09-22T03:25:26.793Z,100.00
2022-09-22T03:27:56.535Z,100.00
2022-09-22T03:30:24.998Z,100.00
2022-09-22T03:32:53.305Z,100.00
2022-09-22T03:35:23.716Z,100.00
2022-09-22T03:37:51.902Z,100.00
2022-09-22T03:40:22.436Z,100.00
2022-09-22T03:42:51.243Z,100.00
2022-09-22T03:45:19.788Z,100.00
2022-09-22T03:47:48.336Z,100.00
2022-09-22T03:50:16.582Z,100.00
2022-09-22T03:52:46.482Z,100.00
2022-09-22T03:55:14.929Z,100.00
2022-09-22T03:57:43.559Z,100.00
2022-09-22T04:00:14.539Z,100.00
2022-09-22T04:02:43.413Z,100.00
2022-09-22T04:05:12.413Z,100.00
2022-09-22T04:07:40.567Z,100.00
2022-09-22T04:10:11.001Z,100.00
2022-09-22T04:12:39.516Z,100.00
2022-09-22T04:15:09.030Z,100.00
2022-09-22T04:17:37.687Z,100.00
2022-09-22T04:20:07.466Z,100.00
2022-09-22T04:22:36.216Z,100.00
2022-09-22T04:25:05.082Z,100.00
2022-09-22T04:27:35.042Z,100.00
2022-09-22T04:30:07.431Z,100.00
2022-09-22T04:32:36.327Z,100.00
2022-09-22T04:35:05.047Z,100.00
2022-09-22T04:37:33.560Z,100.00
2022-09-22T04:40:02.016Z,100.00
2022-09-22T04:42:31.486Z,100.00
2022-09-22T04:45:02.320Z,100.00
2022-09-22T04:47:31.216Z,100.00
2022-09-22T04:49:59.707Z,100.00
2022-09-22T04:52:28.305Z,100.00
2022-09-22T04:54:59.021Z,100.00
2022-09-22T04:57:27.425Z,100.00
2022-09-22T04:59:55.728Z,100.00
2022-09-22T05:02:25.611Z,100.00
2022-09-22T05:04:53.997Z,100.00
2022-09-22T05:07:22.788Z,100.00
2022-09-22T05:09:51.031Z,100.00
2022-09-22T05:12:21.494Z,100.00
2022-09-22T05:14:50.104Z,100.00
2022-09-22T05:17:23.850Z,100.00
2022-09-22T05:19:56.125Z,100.00
2022-09-22T05:22:28.175Z,100.00
2022-09-22T05:24:56.363Z,100.00
2022-09-22T05:27:26.289Z,100.00
2022-09-22T05:29:54.447Z,100.00
2022-09-22T05:32:22.927Z,100.00
2022-09-22T05:34:56.187Z,100.00
2022-09-22T05:37:24.460Z,100.00
2022-09-22T05:39:52.678Z,100.00
2022-09-22T05:42:21.499Z,100.00
2022-09-22T05:44:50.004Z,100.00
2022-09-22T05:47:18.288Z,100.00
2022-09-22T05:49:47.158Z,100.00
2022-09-22T05:52:18.631Z,100.00
2022-09-22T05:54:46.722Z,100.00
2022-09-22T05:57:15.132Z,100.00
2022-09-22T05:59:43.294Z,100.00
2022-09-22T06:02:25.147Z,100.00
2022-09-22T06:04:54.322Z,100.00
2022-09-22T06:07:25.491Z,100.00
2022-09-22T06:09:54.303Z,100.00
2022-09-22T06:12:22.880Z,100.00
2022-09-22T06:14:51.256Z,100.00
2022-09-22T06:17:19.588Z,100.00
2022-09-22T06:19:50.619Z,100.00
2022-09-22T06:22:19.625Z,100.00
2022-09-22T06:24:49.630Z,100.00
2022-09-22T06:27:20.759Z,100.00
2022-09-22T06:29:49.128Z,100.00
2022-09-22T06:32:19.668Z,100.00
2022-09-22T06:34:48.029Z,100.00
2022-09-22T06:37:16.308Z,100.00
2022-09-22T06:39:44.382Z,100.00
2022-09-22T06:42:17.530Z,100.00
2022-09-22T06:44:46.268Z,100.00
2022-09-22T06:47:14.614Z,100.00
2022-09-22T06:49:43.393Z,100.00
2022-09-22T06:52:15.017Z,100.00
2022-09-22T06:54:44.384Z,100.00
2022-09-22T06:57:13.726Z,100.00
2022-09-22T06:59:44.751Z,100.00
2022-09-22T07:02:13.129Z,100.00
2022-09-22T07:04:41.459Z,100.00
2022-09-22T07:07:10.197Z,100.00
2022-09-22T07:09:38.460Z,100.00
2022-09-22T07:12:07.214Z,100.00
2022-09-22T07:14:35.335Z,100.00
2022-09-22T07:17:05.376Z,100.00
2022-09-22T07:19:36.335Z,100.00
2022-09-22T07:22:04.964Z,100.00
2022-09-22T07:24:33.334Z,100.00
2022-09-22T07:27:06.093Z,100.00
2022-09-22T07:29:34.827Z,100.00
2022-09-22T07:32:05.141Z,100.00
2022-09-22T07:34:33.731Z,100.00
2022-09-22T07:37:03.191Z,100.00
2022-09-22T07:39:31.361Z,100.00
2022-09-22T07:41:59.774Z,100.00
2022-09-22T07:44:45.027Z,100.00
2022-09-22T07:47:36.108Z,100.00
2022-09-22T07:50:06.719Z,100.00
2022-09-22T07:52:35.194Z,100.00
2022-09-22T07:55:04.051Z,100.00
2022-09-22T07:57:33.640Z,100.00
2022-09-22T08:00:02.142Z,100.00
2022-09-22T08:02:32.112Z,100.00
2022-09-22T08:05:03.469Z,100.00
2022-09-22T08:07:33.342Z,100.00
2022-09-22T08:10:01.895Z,100.00
2022-09-22T08:12:30.201Z,100.00
2022-09-22T08:15:02.342Z,100.00
2022-09-22T08:17:34.303Z,100.00
2022-09-22T08:20:05.320Z,100.00
2022-09-22T08:22:37.007Z,100.00
2022-09-22T08:25:06.659Z,100.00
2022-09-22T08:27:36.794Z,100.00
2022-09-22T08:30:09.328Z,100.00
2022-09-22T08:32:39.424Z,100.00
2022-09-22T08:35:09.286Z,100.00
2022-09-22T08:37:38.224Z,100.00
2022-09-22T08:40:08.193Z,100.00
2022-09-22T08:42:36.560Z,100.00
2022-09-22T08:45:09.433Z,100.00
2022-09-22T08:48:01.898Z,100.00
2022-09-22T08:50:56.228Z,100.00
2022-09-22T08:53:24.660Z,100.00
2022-09-22T08:56:00.658Z,100.00
2022-09-22T08:58:40.784Z,100.00
2022-09-22T09:01:25.357Z,100.00
2022-09-22T09:04:13.475Z,100.00
2022-09-22T09:06:48.613Z,100.00
2022-09-22T09:09:34.076Z,100.00
2022-09-22T09:12:12.682Z,100.00
2022-09-22T09:15:17.194Z,100.00
2022-09-22T09:17:48.665Z,100.00
2022-09-22T09:20:26.665Z,100.00
2022-09-22T09:22:56.211Z,100.00
2022-09-22T09:25:31.704Z,100.00
2022-09-22T09:28:03.324Z,100.00
2022-09-22T09:30:42.801Z,100.00
2022-09-22T09:33:19.649Z,100.00
2022-09-22T09:35:52.363Z,100.00
2022-09-22T09:38:27.637Z,100.00
2022-09-22T09:41:03.312Z,100.00
2022-09-22T09:43:33.678Z,100.00
2022-09-22T09:46:14.961Z,100.00
2022-09-22T09:48:58.826Z,99.92
2022-09-22T09:51:30.905Z,93.27
2022-09-22T09:54:05.639Z,87.10
2022-09-22T09:56:37.235Z,82.34
2022-09-22T09:59:24.572Z,82.71
2022-09-22T10:01:56.202Z,82.20
2022-09-22T10:04:33.796Z,84.64
2022-09-22T10:07:16.869Z,86.22
2022-09-22T10:09:49.128Z,78.26
2022-09-22T10:12:26.312Z,77.95
2022-09-22T10:14:56.332Z,78.17
2022-09-22T10:17:29.311Z,77.30
2022-09-22T10:20:24.332Z,78.90
2022-09-22T10:22:55.207Z,74.02
2022-09-22T10:25:26.241Z,77.68
2022-09-22T10:28:02.246Z,74.06
2022-09-22T10:30:33.114Z,72.89
2022-09-22T10:33:17.388Z,71.08
2022-09-22T10:35:47.641Z,74.83
2022-09-22T10:38:22.222Z,73.72
2022-09-22T10:40:58.037Z,69.40
2022-09-22T10:43:37.278Z,67.60
2022-09-22T10:46:19.256Z,66.64
2022-09-22T10:48:50.755Z,67.73
2022-09-22T10:51:34.320Z,66.22
2022-09-22T10:54:31.744Z,66.37
2022-09-22T10:57:10.317Z,64.21
2022-09-22T10:59:55.561Z,65.04
2022-09-22T11:03:06.721Z,66.52
2022-09-22T11:06:12.238Z,66.07
2022-09-22T11:09:06.158Z,62.52
2022-09-22T11:12:00.603Z,60.42
2022-09-22T11:14:42.986Z,61.12
2022-09-22T11:17:21.213Z,57.70
2022-09-22T11:20:02.748Z,59.29
2022-09-22T11:23:00.416Z,57.69
2022-09-22T11:25:44.928Z,56.92
2022-09-22T11:28:33.234Z,54.84
2022-09-22T11:31:02.018Z,54.41
2022-09-22T11:33:58.289Z,53.39
2022-09-22T11:36:42.752Z,52.51
2022-09-22T11:39:35.150Z,51.58
2022-09-22T11:42:17.823Z,53.46
2022-09-22T11:44:59.099Z,52.45
2022-09-22T11:47:41.424Z,51.71
2022-09-22T11:50:32.432Z,55.14
2022-09-22T11:53:23.418Z,53.35
2022-09-22T11:56:06.573Z,53.45
2022-09-22T11:58:41.290Z,52.56
2022-09-22T12:01:15.065Z,52.74
2022-09-22T12:03:47.852Z,54.05
2022-09-22T12:06:21.301Z,54.03
2022-09-22T12:08:56.748Z,55.55
2022-09-22T12:11:29.083Z,56.52
2022-09-22T12:13:59.176Z,57.79
2022-09-22T12:16:41.965Z,58.01
2022-09-22T12:19:22.018Z,57.80
2022-09-22T12:21:57.191Z,60.18
2022-09-22T12:24:25.748Z,59.87
2022-09-22T12:26:54.517Z,61.35
2022-09-22T12:29:29.170Z,62.41
2022-09-22T12:32:00.339Z,64.13
2022-09-22T12:34:34.121Z,65.04
2022-09-22T12:37:13.929Z,61.90
2022-09-22T12:39:44.761Z,63.13
2022-09-22T12:42:21.534Z,64.84
2022-09-22T12:44:54.960Z,63.82
2022-09-22T12:47:32.311Z,61.94
2022-09-22T12:50:07.089Z,60.81
2022-09-22T12:52:58.995Z,61.90
2022-09-22T12:55:38.363Z,60.84
2022-09-22T12:58:42.732Z,57.60
2022-09-22T13:01:35.613Z,56.62
2022-09-22T13:04:16.992Z,58.58
2022-09-22T13:07:06.595Z,58.20
2022-09-22T13:09:34.981Z,56.47
2022-09-22T13:12:25.580Z,57.42
2022-09-22T13:15:18.519Z,58.24
2022-09-22T13:17:48.437Z,59.31
2022-09-22T13:20:32.983Z,60.72
2022-09-22T13:23:12.162Z,60.49
2022-09-22T13:25:42.617Z,65.80
2022-09-22T13:28:16.613Z,64.54
2022-09-22T13:30:47.121Z,68.36
2022-09-22T13:33:24.800Z,70.95
2022-09-22T13:36:01.795Z,74.63
2022-09-22T13:38:31.317Z,77.33
2022-09-22T13:40:59.418Z,75.50
2022-09-22T13:43:35.355Z,74.91
2022-09-22T13:46:05.423Z,64.60
2022-09-22T13:48:36.821Z,61.41
2022-09-22T13:51:09.538Z,56.09
2022-09-22T13:53:39.022Z,47.77
2022-09-22T13:56:16.929Z,49.11
2022-09-22T13:58:50.293Z,53.58
2022-09-22T14:01:20.663Z,52.75
2022-09-22T14:03:50.667Z,49.73
2022-09-22T14:06:23.393Z,51.36
2022-09-22T14:08:53.355Z,52.48
2022-09-22T14:11:24.151Z,48.40
2022-09-22T14:14:01.404Z,45.97
2022-09-22T14:16:34.226Z,44.29
2022-09-22T14:19:06.778Z,42.99
2022-09-22T14:21:43.236Z,42.43
2022-09-22T14:24:15.288Z,41.52
2022-09-22T14:26:48.169Z,40.57
2022-09-22T14:29:20.928Z,40.41
2022-09-22T14:31:53.789Z,40.76
2022-09-22T14:34:26.208Z,39.92
2022-09-22T14:36:56.870Z,38.73
2022-09-22T14:39:32.226Z,39.53
2022-09-22T14:42:09.398Z,37.89
2022-09-22T14:44:46.352Z,36.66
2022-09-22T14:47:24.432Z,36.12
2022-09-22T14:50:08.825Z,35.85
2022-09-22T14:52:42.351Z,35.60
2022-09-22T14:55:18.253Z,35.33
2022-09-22T14:57:49.863Z,35.13
2022-09-22T15:00:36.747Z,34.64
2022-09-22T15:03:16.470Z,34.29
2022-09-22T15:05:45.614Z,34.76
2022-09-22T15:08:21.836Z,34.13
2022-09-22T15:10:54.494Z,33.98
2022-09-22T15:13:31.350Z,33.83
2022-09-22T15:16:01.325Z,34.22
2022-09-22T15:18:31.053Z,34.07
2022-09-22T15:21:05.585Z,35.42
2022-09-22T15:23:42.119Z,35.91
2022-09-22T15:26:18.435Z,35.33
2022-09-22T15:28:48.580Z,34.22
2022-09-22T15:31:27.037Z,33.17
2022-09-22T15:33:56.310Z,32.05
2022-09-22T15:36:28.318Z,31.61
2022-09-22T15:39:01.107Z,30.74
2022-09-22T15:41:29.726Z,30.47
2022-09-22T15:43:59.923Z,29.90
2022-09-22T15:46:34.052Z,30.10
2022-09-22T15:49:05.680Z,30.42
2022-09-22T15:51:34.799Z,29.37
2022-09-22T15:54:05.841Z,30.13
2022-09-22T15:56:34.579Z,30.09
2022-09-22T15:59:02.995Z,29.23
2022-09-22T16:01:31.334Z,29.07
2022-09-22T16:04:00.551Z,29.78
2022-09-22T16:06:29.265Z,29.92
2022-09-22T16:08:58.638Z,30.73
2022-09-22T16:11:30.160Z,30.90
2022-09-22T16:14:03.438Z,32.70
2022-09-22T16:16:36.445Z,32.50
2022-09-22T16:19:07.981Z,32.01
2022-09-22T16:21:38.170Z,32.35
2022-09-22T16:24:09.627Z,31.36
2022-09-22T16:26:41.320Z,31.63
2022-09-22T16:29:11.501Z,31.56
2022-09-22T16:31:42.508Z,31.56
2022-09-22T16:34:12.061Z,30.80
2022-09-22T16:36:42.218Z,31.30
2022-09-22T16:39:10.858Z,31.57
2022-09-22T16:41:45.913Z,30.99
2022-09-22T16:44:15.798Z,31.95
2022-09-22T16:46:44.639Z,31.77
2022-09-22T16:49:15.912Z,33.35
2022-09-22T16:51:47.004Z,33.63
2022-09-22T16:54:15.841Z,33.76
2022-09-22T16:56:48.124Z,33.98
2022-09-22T16:59:18.382Z,34.26
2022-09-22T17:01:52.502Z,35.41
2022-09-22T17:04:24.173Z,35.48
2022-09-22T17:06:56.258Z,37.54
2022-09-22T17:09:24.866Z,38.20
2022-09-22T17:11:58.124Z,39.74
2022-09-22T17:14:29.162Z,41.59
2022-09-22T17:17:06.766Z,45.40
2022-09-22T17:19:36.476Z,48.75
2022-09-22T17:22:08.707Z,50.64
2022-09-22T17:24:37.381Z,49.99
2022-09-22T17:27:08.910Z,51.16
2022-09-22T17:29:37.126Z,55.96
2022-09-22T17:32:08.810Z,57.03
2022-09-22T17:34:39.443Z,57.81
2022-09-22T17:37:07.688Z,59.65
2022-09-22T17:39:37.853Z,59.25
2022-09-22T17:42:10.673Z,59.02
2022-09-22T17:44:42.914Z,64.10
2022-09-22T17:47:29.554Z,67.58
2022-09-22T17:50:14.968Z,69.83
2022-09-22T17:53:01.008Z,70.92
2022-09-22T17:55:29.730Z,74.90
2022-09-22T17:57:59.401Z,75.29
2022-09-22T18:00:30.014Z,77.53
2022-09-22T18:02:58.807Z,77.84
2022-09-22T18:05:27.951Z,78.96
2022-09-22T18:07:59.224Z,80.08
2022-09-22T18:10:32.534Z,84.73
2022-09-22T18:13:04.302Z,86.81
2022-09-22T18:15:32.984Z,92.84
2022-09-22T18:18:01.564Z,94.50
2022-09-22T18:20:30.556Z,93.07
2022-09-22T18:23:00.525Z,94.44
2022-09-22T18:25:30.428Z,94.80
2022-09-22T18:28:01.613Z,96.40
2022-09-22T18:30:32.211Z,96.19
2022-09-22T18:33:02.999Z,97.06
2022-09-22T18:35:34.130Z,96.22
2022-09-22T18:38:02.241Z,97.42
2022-09-22T18:40:30.832Z,97.09
2022-09-22T18:43:02.560Z,96.26
2022-09-22T18:45:31.270Z,96.77
2022-09-22T18:48:03.061Z,97.59
2022-09-22T18:50:36.326Z,100.00
2022-09-22T18:53:04.846Z,100.00
2022-09-22T18:55:33.280Z,100.00
2022-09-22T18:58:03.148Z,100.00
2022-09-22T19:00:31.783Z,100.00
2022-09-22T19:03:00.656Z,100.00
2022-09-22T19:05:28.983Z,100.00
2022-09-22T19:08:00.561Z,100.00
2022-09-22T19:10:29.242Z,100.00
2022-09-22T19:12:57.620Z,100.00
2022-09-22T19:15:28.558Z,100.00
2022-09-22T19:17:57.515Z,100.00
2022-09-22T19:20:26.397Z,100.00
2022-09-22T19:22:59.115Z,100.00
2022-09-22T19:25:29.495Z,100.00
2022-09-22T19:27:58.183Z,100.00
2022-09-22T19:30:31.460Z,100.00
2022-09-22T19:33:00.731Z,100.00
2022-09-22T19:35:29.551Z,100.00
2022-09-22T19:37:58.667Z,100.00
2022-09-22T19:40:28.588Z,100.00
2022-09-22T19:42:57.002Z,100.00
2022-09-22T19:45:28.117Z,100.00
2022-09-22T19:47:58.627Z,100.00
2022-09-22T19:50:27.765Z,100.00
2022-09-22T19:52:56.525Z,100.00
2022-09-22T19:55:24.992Z,100.00
2022-09-22T19:57:54.366Z,100.00
2022-09-22T20:00:26.322Z,100.00
2022-09-22T20:02:59.401Z,100.00
2022-09-22T20:05:30.342Z,100.00
2022-09-22T20:07:59.671Z,100.00
2022-09-22T20:10:33.394Z,100.00
2022-09-22T20:13:24.856Z,100.00
2022-09-22T20:15:53.509Z,100.00
2022-09-22T20:18:23.593Z,100.00
2022-09-22T20:20:53.720Z,100.00
2022-09-22T20:23:25.997Z,100.00
2022-09-22T20:25:54.421Z,100.00
2022-09-22T20:28:23.047Z,100.00
2022-09-22T20:30:52.723Z,100.00
2022-09-22T20:33:24.939Z,100.00
2022-09-22T20:35:55.554Z,100.00
2022-09-22T20:38:24.253Z,100.00
2022-09-22T20:40:52.668Z,100.00
2022-09-22T20:43:21.305Z,100.00
2022-09-22T20:45:49.843Z,100.00
2022-09-22T20:48:23.418Z,100.00
2022-09-22T20:50:58.800Z,100.00
2022-09-22T20:53:28.236Z,100.00
2022-09-22T20:56:01.439Z,100.00
2022-09-22T20:58:32.523Z,100.00
2022-09-22T21:01:01.352Z,100.00
2022-09-22T21:03:30.342Z,100.00
2022-09-22T21:06:07.902Z,100.00
2022-09-22T21:08:56.685Z,100.00
2022-09-22T21:11:26.848Z,100.00
2022-09-22T21:14:02.112Z,100.00
2022-09-22T21:16:30.637Z,100.00
2022-09-22T21:19:12.553Z,100.00
2022-09-22T21:21:43.259Z,100.00
2022-09-22T21:24:12.771Z,100.00
2022-09-22T21:26:41.756Z,100.00
2022-09-22T21:29:11.075Z,100.00
2022-09-22T21:31:39.263Z,100.00
2022-09-22T21:34:07.743Z,100.00
2022-09-22T21:36:36.631Z,100.00
2022-09-22T21:39:06.697Z,100.00
2022-09-22T21:41:35.507Z,100.00
2022-09-22T21:44:05.431Z,100.00
2022-09-22T21:46:41.791Z,100.00
2022-09-22T21:49:11.472Z,100.00
2022-09-22T21:51:42.906Z,100.00
2022-09-22T21:54:16.907Z,100.00
2022-09-22T21:56:46.169Z,100.00
2022-09-22T21:59:15.626Z,100.00
2022-09-22T22:01:46.176Z,100.00
2022-09-22T22:04:16.569Z,100.00
2022-09-22T22:06:46.484Z,100.00
2022-09-22T22:09:18.739Z,100.00
2022-09-22T22:11:49.619Z,100.00
2022-09-22T22:14:20.374Z,100.00
2022-09-22T22:16:50.337Z,100.00
2022-09-22T22:19:21.305Z,100.00
2022-09-22T22:21:51.228Z,100.00
2022-09-22T22:24:42.828Z,100.00
2022-09-22T22:27:13.844Z,100.00
2022-09-22T22:29:42.072Z,100.00
2022-09-22T22:32:14.739Z,100.00
2022-09-22T22:34:43.125Z,100.00
2022-09-22T22:37:14.312Z,100.00
2022-09-22T22:39:44.519Z,100.00
2022-09-22T22:42:12.874Z,100.00
2022-09-22T22:44:41.990Z,100.00
2022-09-22T22:47:10.504Z,100.00
2022-09-22T22:49:38.856Z,100.00
2022-09-22T22:52:07.149Z,100.00
2022-09-22T22:54:38.927Z,100.00
2022-09-22T22:57:08.898Z,100.00
2022-09-22T22:59:37.296Z,100.00
2022-09-22T23:02:05.446Z,100.00
2022-09-22T23:04:33.868Z,100.00
2022-09-22T23:07:02.365Z,100.00
2022-09-22T23:09:30.612Z,100.00
2022-09-22T23:11:58.681Z,100.00
2022-09-22T23:14:28.786Z,100.00
2022-09-22T23:16:57.691Z,100.00
2022-09-22T23:19:26.294Z,100.00
2022-09-22T23:21:54.844Z,100.00
2022-09-22T23:24:22.973Z,100.00
2022-09-22T23:26:51.187Z,100.00
2022-09-22T23:29:19.628Z,100.00
2022-09-22T23:31:49.624Z,100.00
2022-09-22T23:34:18.521Z,100.00
2022-09-22T23:36:48.282Z,100.00
2022-09-22T23:39:17.778Z,100.00
2022-09-22T23:41:47.278Z,100.00
2022-09-22T23:44:15.412Z,100.00
2022-09-22T23:46:44.621Z,100.00
2022-09-22T23:49:14.572Z,100.00
2022-09-22T23:51:44.199Z,100.00
2022-09-22T23:54:14.291Z,100.00
2022-09-22T23:56:43.094Z,100.00
2022-09-22T23:59:11.664Z,100.00
